sensor_id;sensor_type;location;lat;lon;timestamp;pressure;altitude;pressure_sealevel;temperature
71463;BMP180;59266;52.608;13.260;2022-08-27T00:01:20;100759.00;;;20.40
71463;BMP180;59266;52.608;13.260;2022-08-27T00:03:47;100757.00;;;20.50
71463;BMP180;59266;52.608;13.260;2022-08-27T00:06:15;100749.00;;;20.50
71463;BMP180;59266;52.608;13.260;2022-08-27T00:08:43;100761.00;;;20.40
71463;BMP180;59266;52.608;13.260;2022-08-27T00:11:11;100750.00;;;20.40
71463;BMP180;59266;52.608;13.260;2022-08-27T00:13:39;100749.00;;;20.40
71463;BMP180;59266;52.608;13.260;2022-08-27T00:16:07;100745.00;;;20.40
71463;BMP180;59266;52.608;13.260;2022-08-27T00:18:36;100741.00;;;20.40
71463;BMP180;59266;52.608;13.260;2022-08-27T00:21:03;100751.00;;;20.40
71463;BMP180;59266;52.608;13.260;2022-08-27T00:23:32;100758.00;;;20.40
71463;BMP180;59266;52.608;13.260;2022-08-27T00:25:58;100754.00;;;20.40
71463;BMP180;59266;52.608;13.260;2022-08-27T00:28:26;100752.00;;;20.50
71463;BMP180;59266;52.608;13.260;2022-08-27T00:30:53;100755.00;;;20.50
71463;BMP180;59266;52.608;13.260;2022-08-27T00:33:24;100751.00;;;20.50
71463;BMP180;59266;52.608;13.260;2022-08-27T00:35:51;100748.00;;;20.50
71463;BMP180;59266;52.608;13.260;2022-08-27T00:38:20;100753.00;;;20.30
71463;BMP180;59266;52.608;13.260;2022-08-27T00:40:47;100748.00;;;20.30
71463;BMP180;59266;52.608;13.260;2022-08-27T00:43:23;100759.00;;;20.40
71463;BMP180;59266;52.608;13.260;2022-08-27T00:45:52;100753.00;;;20.40
71463;BMP180;59266;52.608;13.260;2022-08-27T00:48:21;100748.00;;;20.50
71463;BMP180;59266;52.608;13.260;2022-08-27T00:50:52;100748.00;;;20.60
71463;BMP180;59266;52.608;13.260;2022-08-27T00:53:21;100747.00;;;20.60
71463;BMP180;59266;52.608;13.260;2022-08-27T00:55:54;100740.00;;;20.40
71463;BMP180;59266;52.608;13.260;2022-08-27T01:00:54;100738.00;;;20.30
71463;BMP180;59266;52.608;13.260;2022-08-27T01:03:21;100733.00;;;20.40
71463;BMP180;59266;52.608;13.260;2022-08-27T01:05:49;100732.00;;;20.40
71463;BMP180;59266;52.608;13.260;2022-08-27T01:08:25;100732.00;;;20.40
71463;BMP180;59266;52.608;13.260;2022-08-27T01:10:53;100731.00;;;20.40
71463;BMP180;59266;52.608;13.260;2022-08-27T01:13:24;100725.00;;;20.50
71463;BMP180;59266;52.608;13.260;2022-08-27T01:16:17;100726.00;;;20.50
71463;BMP180;59266;52.608;13.260;2022-08-27T01:18:45;100740.00;;;20.70
71463;BMP180;59266;52.608;13.260;2022-08-27T01:21:27;100746.00;;;20.50
71463;BMP180;59266;52.608;13.260;2022-08-27T01:24:05;100735.00;;;20.50
71463;BMP180;59266;52.608;13.260;2022-08-27T01:26:34;100742.00;;;20.60
71463;BMP180;59266;52.608;13.260;2022-08-27T01:29:01;100738.00;;;20.50
71463;BMP180;59266;52.608;13.260;2022-08-27T01:31:27;100745.00;;;20.60
71463;BMP180;59266;52.608;13.260;2022-08-27T01:33:59;100744.00;;;20.60
71463;BMP180;59266;52.608;13.260;2022-08-27T01:36:26;100747.00;;;20.60
71463;BMP180;59266;52.608;13.260;2022-08-27T01:38:53;100746.00;;;20.70
71463;BMP180;59266;52.608;13.260;2022-08-27T01:41:23;100754.00;;;20.70
71463;BMP180;59266;52.608;13.260;2022-08-27T01:43:51;100743.00;;;20.80
71463;BMP180;59266;52.608;13.260;2022-08-27T01:46:22;100744.00;;;20.60
71463;BMP180;59266;52.608;13.260;2022-08-27T01:48:49;100743.00;;;20.70
71463;BMP180;59266;52.608;13.260;2022-08-27T01:51:16;100748.00;;;20.80
71463;BMP180;59266;52.608;13.260;2022-08-27T01:53:43;100751.00;;;20.60
71463;BMP180;59266;52.608;13.260;2022-08-27T01:56:09;100753.00;;;20.50
71463;BMP180;59266;52.608;13.260;2022-08-27T01:58:36;100753.00;;;20.50
71463;BMP180;59266;52.608;13.260;2022-08-27T02:01:10;100758.00;;;20.40
71463;BMP180;59266;52.608;13.260;2022-08-27T02:03:38;100757.00;;;20.30
71463;BMP180;59266;52.608;13.260;2022-08-27T02:06:07;100759.00;;;20.30
71463;BMP180;59266;52.608;13.260;2022-08-27T02:08:34;100761.00;;;20.30
71463;BMP180;59266;52.608;13.260;2022-08-27T02:11:01;100753.00;;;20.20
71463;BMP180;59266;52.608;13.260;2022-08-27T02:13:27;100765.00;;;20.40
71463;BMP180;59266;52.608;13.260;2022-08-27T02:15:54;100755.00;;;20.50
71463;BMP180;59266;52.608;13.260;2022-08-27T02:18:21;100756.00;;;20.60
71463;BMP180;59266;52.608;13.260;2022-08-27T02:20:47;100758.00;;;20.50
71463;BMP180;59266;52.608;13.260;2022-08-27T02:23:15;100755.00;;;20.50
71463;BMP180;59266;52.608;13.260;2022-08-27T02:25:42;100753.00;;;20.60
71463;BMP180;59266;52.608;13.260;2022-08-27T02:28:09;100754.00;;;20.60
71463;BMP180;59266;52.608;13.260;2022-08-27T02:30:35;100750.00;;;20.60
71463;BMP180;59266;52.608;13.260;2022-08-27T02:33:03;100755.00;;;20.60
71463;BMP180;59266;52.608;13.260;2022-08-27T02:35:33;100747.00;;;20.50
71463;BMP180;59266;52.608;13.260;2022-08-27T02:37:59;100754.00;;;20.50
71463;BMP180;59266;52.608;13.260;2022-08-27T02:40:27;100756.00;;;20.60
71463;BMP180;59266;52.608;13.260;2022-08-27T02:42:54;100748.00;;;20.60
71463;BMP180;59266;52.608;13.260;2022-08-27T02:45:21;100746.00;;;20.70
71463;BMP180;59266;52.608;13.260;2022-08-27T02:47:48;100750.00;;;20.80
71463;BMP180;59266;52.608;13.260;2022-08-27T02:50:15;100750.00;;;20.60
71463;BMP180;59266;52.608;13.260;2022-08-27T02:52:41;100748.00;;;20.50
71463;BMP180;59266;52.608;13.260;2022-08-27T02:55:11;100760.00;;;20.40
71463;BMP180;59266;52.608;13.260;2022-08-27T02:57:39;100760.00;;;20.30
71463;BMP180;59266;52.608;13.260;2022-08-27T03:00:08;100762.00;;;20.20
71463;BMP180;59266;52.608;13.260;2022-08-27T03:02:36;100758.00;;;20.10
71463;BMP180;59266;52.608;13.260;2022-08-27T03:05:04;100752.00;;;20.30
71463;BMP180;59266;52.608;13.260;2022-08-27T03:07:31;100762.00;;;20.20
71463;BMP180;59266;52.608;13.260;2022-08-27T03:09:57;100759.00;;;20.30
71463;BMP180;59266;52.608;13.260;2022-08-27T03:12:24;100768.00;;;20.40
71463;BMP180;59266;52.608;13.260;2022-08-27T03:14:50;100768.00;;;20.40
71463;BMP180;59266;52.608;13.260;2022-08-27T03:17:17;100770.00;;;20.40
71463;BMP180;59266;52.608;13.260;2022-08-27T03:20:03;100774.00;;;20.10
71463;BMP180;59266;52.608;13.260;2022-08-27T03:22:30;100778.00;;;20.10
71463;BMP180;59266;52.608;13.260;2022-08-27T03:24:56;100774.00;;;20.20
71463;BMP180;59266;52.608;13.260;2022-08-27T03:27:23;100770.00;;;20.20
71463;BMP180;59266;52.608;13.260;2022-08-27T03:29:49;100765.00;;;20.20
71463;BMP180;59266;52.608;13.260;2022-08-27T03:32:16;100767.00;;;20.30
71463;BMP180;59266;52.608;13.260;2022-08-27T03:34:43;100766.00;;;20.20
71463;BMP180;59266;52.608;13.260;2022-08-27T03:37:09;100762.00;;;20.10
71463;BMP180;59266;52.608;13.260;2022-08-27T03:39:36;100755.00;;;20.10
71463;BMP180;59266;52.608;13.260;2022-08-27T03:42:03;100754.00;;;20.20
71463;BMP180;59266;52.608;13.260;2022-08-27T03:44:29;100749.00;;;20.20
71463;BMP180;59266;52.608;13.260;2022-08-27T03:46:56;100753.00;;;20.20
71463;BMP180;59266;52.608;13.260;2022-08-27T03:49:23;100742.00;;;20.10
71463;BMP180;59266;52.608;13.260;2022-08-27T03:51:51;100751.00;;;20.30
71463;BMP180;59266;52.608;13.260;2022-08-27T03:54:18;100737.00;;;20.30
71463;BMP180;59266;52.608;13.260;2022-08-27T03:56:45;100740.00;;;20.10
71463;BMP180;59266;52.608;13.260;2022-08-27T03:59:12;100734.00;;;20.10
71463;BMP180;59266;52.608;13.260;2022-08-27T04:01:40;100735.00;;;20.20
71463;BMP180;59266;52.608;13.260;2022-08-27T04:04:07;100736.00;;;20.10
71463;BMP180;59266;52.608;13.260;2022-08-27T04:06:34;100737.00;;;20.30
71463;BMP180;59266;52.608;13.260;2022-08-27T04:09:01;100738.00;;;20.20
71463;BMP180;59266;52.608;13.260;2022-08-27T04:11:27;100731.00;;;20.20
71463;BMP180;59266;52.608;13.260;2022-08-27T04:13:54;100732.00;;;20.40
71463;BMP180;59266;52.608;13.260;2022-08-27T04:16:21;100736.00;;;20.40
71463;BMP180;59266;52.608;13.260;2022-08-27T04:18:48;100737.00;;;20.40
71463;BMP180;59266;52.608;13.260;2022-08-27T04:21:14;100741.00;;;20.30
71463;BMP180;59266;52.608;13.260;2022-08-27T04:23:41;100734.00;;;20.30
71463;BMP180;59266;52.608;13.260;2022-08-27T04:26:09;100737.00;;;20.20
71463;BMP180;59266;52.608;13.260;2022-08-27T04:28:36;100737.00;;;20.10
71463;BMP180;59266;52.608;13.260;2022-08-27T04:31:04;100738.00;;;20.20
71463;BMP180;59266;52.608;13.260;2022-08-27T04:33:33;100746.00;;;20.20
71463;BMP180;59266;52.608;13.260;2022-08-27T04:36:02;100748.00;;;20.20
71463;BMP180;59266;52.608;13.260;2022-08-27T04:38:29;100752.00;;;20.30
71463;BMP180;59266;52.608;13.260;2022-08-27T04:40:57;100753.00;;;20.40
71463;BMP180;59266;52.608;13.260;2022-08-27T04:43:42;100757.00;;;20.50
71463;BMP180;59266;52.608;13.260;2022-08-27T04:46:09;100754.00;;;20.50
71463;BMP180;59266;52.608;13.260;2022-08-27T04:48:36;100756.00;;;20.50
71463;BMP180;59266;52.608;13.260;2022-08-27T04:51:03;100752.00;;;20.40
71463;BMP180;59266;52.608;13.260;2022-08-27T04:53:32;100755.00;;;20.40
71463;BMP180;59266;52.608;13.260;2022-08-27T04:55:59;100761.00;;;20.50
71463;BMP180;59266;52.608;13.260;2022-08-27T04:58:26;100755.00;;;20.50
71463;BMP180;59266;52.608;13.260;2022-08-27T05:00:55;100759.00;;;20.40
71463;BMP180;59266;52.608;13.260;2022-08-27T05:03:22;100760.00;;;20.30
71463;BMP180;59266;52.608;13.260;2022-08-27T05:05:51;100752.00;;;20.50
71463;BMP180;59266;52.608;13.260;2022-08-27T05:08:18;100753.00;;;20.50
71463;BMP180;59266;52.608;13.260;2022-08-27T05:10:48;100753.00;;;20.50
71463;BMP180;59266;52.608;13.260;2022-08-27T05:13:16;100763.00;;;20.30
71463;BMP180;59266;52.608;13.260;2022-08-27T05:15:44;100766.00;;;20.30
71463;BMP180;59266;52.608;13.260;2022-08-27T05:18:12;100771.00;;;20.30
71463;BMP180;59266;52.608;13.260;2022-08-27T05:20:46;100761.00;;;20.20
71463;BMP180;59266;52.608;13.260;2022-08-27T05:23:15;100762.00;;;20.20
71463;BMP180;59266;52.608;13.260;2022-08-27T05:25:44;100756.00;;;20.30
71463;BMP180;59266;52.608;13.260;2022-08-27T05:28:13;100758.00;;;20.40
71463;BMP180;59266;52.608;13.260;2022-08-27T05:30:45;100755.00;;;20.40
71463;BMP180;59266;52.608;13.260;2022-08-27T05:33:23;100758.00;;;20.40
71463;BMP180;59266;52.608;13.260;2022-08-27T05:35:53;100755.00;;;20.50
71463;BMP180;59266;52.608;13.260;2022-08-27T05:38:21;100751.00;;;20.50
71463;BMP180;59266;52.608;13.260;2022-08-27T05:40:49;100746.00;;;20.50
71463;BMP180;59266;52.608;13.260;2022-08-27T05:43:17;100756.00;;;20.50
71463;BMP180;59266;52.608;13.260;2022-08-27T05:45:46;100758.00;;;20.40
71463;BMP180;59266;52.608;13.260;2022-08-27T05:48:14;100743.00;;;20.40
71463;BMP180;59266;52.608;13.260;2022-08-27T05:50:43;100754.00;;;20.40
71463;BMP180;59266;52.608;13.260;2022-08-27T05:53:11;100749.00;;;20.40
71463;BMP180;59266;52.608;13.260;2022-08-27T05:55:40;100748.00;;;20.50
71463;BMP180;59266;52.608;13.260;2022-08-27T05:58:08;100755.00;;;20.40
71463;BMP180;59266;52.608;13.260;2022-08-27T06:00:55;100754.00;;;20.40
71463;BMP180;59266;52.608;13.260;2022-08-27T06:03:36;100751.00;;;20.50
71463;BMP180;59266;52.608;13.260;2022-08-27T06:06:06;100750.00;;;20.70
71463;BMP180;59266;52.608;13.260;2022-08-27T06:08:33;100758.00;;;20.70
71463;BMP180;59266;52.608;13.260;2022-08-27T06:11:00;100758.00;;;20.70
71463;BMP180;59266;52.608;13.260;2022-08-27T06:13:28;100766.00;;;20.90
71463;BMP180;59266;52.608;13.260;2022-08-27T06:16:09;100764.00;;;21.10
71463;BMP180;59266;52.608;13.260;2022-08-27T06:18:40;100767.00;;;21.20
71463;BMP180;59266;52.608;13.260;2022-08-27T06:21:07;100764.00;;;21.20
71463;BMP180;59266;52.608;13.260;2022-08-27T06:23:34;100764.00;;;21.10
71463;BMP180;59266;52.608;13.260;2022-08-27T06:26:05;100762.00;;;21.20
71463;BMP180;59266;52.608;13.260;2022-08-27T06:28:32;100761.00;;;21.30
71463;BMP180;59266;52.608;13.260;2022-08-27T06:31:14;100763.00;;;21.20
71463;BMP180;59266;52.608;13.260;2022-08-27T06:33:42;100759.00;;;21.20
71463;BMP180;59266;52.608;13.260;2022-08-27T06:36:12;100761.00;;;21.40
71463;BMP180;59266;52.608;13.260;2022-08-27T06:38:39;100773.00;;;21.30
71463;BMP180;59266;52.608;13.260;2022-08-27T06:41:08;100780.00;;;21.50
71463;BMP180;59266;52.608;13.260;2022-08-27T06:43:48;100780.00;;;21.50
71463;BMP180;59266;52.608;13.260;2022-08-27T06:46:17;100781.00;;;21.30
71463;BMP180;59266;52.608;13.260;2022-08-27T06:48:44;100786.00;;;21.40
71463;BMP180;59266;52.608;13.260;2022-08-27T06:51:15;100785.00;;;21.30
71463;BMP180;59266;52.608;13.260;2022-08-27T06:53:44;100792.00;;;21.10
71463;BMP180;59266;52.608;13.260;2022-08-27T06:56:14;100787.00;;;21.30
71463;BMP180;59266;52.608;13.260;2022-08-27T06:58:41;100797.00;;;21.30
71463;BMP180;59266;52.608;13.260;2022-08-27T07:01:17;100797.00;;;21.10
71463;BMP180;59266;52.608;13.260;2022-08-27T07:03:44;100797.00;;;21.20
71463;BMP180;59266;52.608;13.260;2022-08-27T07:06:15;100796.00;;;21.30
71463;BMP180;59266;52.608;13.260;2022-08-27T07:08:41;100797.00;;;21.50
71463;BMP180;59266;52.608;13.260;2022-08-27T07:11:19;100797.00;;;21.50
71463;BMP180;59266;52.608;13.260;2022-08-27T07:13:47;100806.00;;;21.60
71463;BMP180;59266;52.608;13.260;2022-08-27T07:16:20;100797.00;;;21.40
71463;BMP180;59266;52.608;13.260;2022-08-27T07:18:50;100801.00;;;21.50
71463;BMP180;59266;52.608;13.260;2022-08-27T07:21:17;100808.00;;;21.50
71463;BMP180;59266;52.608;13.260;2022-08-27T07:23:48;100811.00;;;21.60
71463;BMP180;59266;52.608;13.260;2022-08-27T07:26:16;100817.00;;;21.60
71463;BMP180;59266;52.608;13.260;2022-08-27T07:28:45;100816.00;;;21.50
71463;BMP180;59266;52.608;13.260;2022-08-27T07:31:14;100810.00;;;21.50
71463;BMP180;59266;52.608;13.260;2022-08-27T07:33:44;100812.00;;;21.50
71463;BMP180;59266;52.608;13.260;2022-08-27T07:36:19;100817.00;;;21.60
71463;BMP180;59266;52.608;13.260;2022-08-27T07:38:46;100814.00;;;21.40
71463;BMP180;59266;52.608;13.260;2022-08-27T07:41:22;100807.00;;;21.50
71463;BMP180;59266;52.608;13.260;2022-08-27T07:43:56;100808.00;;;21.50
71463;BMP180;59266;52.608;13.260;2022-08-27T07:46:43;100815.00;;;21.40
71463;BMP180;59266;52.608;13.260;2022-08-27T07:49:18;100806.00;;;21.50
71463;BMP180;59266;52.608;13.260;2022-08-27T07:51:44;100810.00;;;21.70
71463;BMP180;59266;52.608;13.260;2022-08-27T07:54:11;100811.00;;;21.70
71463;BMP180;59266;52.608;13.260;2022-08-27T07:56:38;100816.00;;;22.00
71463;BMP180;59266;52.608;13.260;2022-08-27T07:59:04;100814.00;;;21.90
71463;BMP180;59266;52.608;13.260;2022-08-27T08:01:31;100811.00;;;22.00
71463;BMP180;59266;52.608;13.260;2022-08-27T08:03:57;100807.00;;;22.50
71463;BMP180;59266;52.608;13.260;2022-08-27T08:06:24;100811.00;;;22.50
71463;BMP180;59266;52.608;13.260;2022-08-27T08:08:51;100808.00;;;22.50
71463;BMP180;59266;52.608;13.260;2022-08-27T08:11:18;100809.00;;;22.50
71463;BMP180;59266;52.608;13.260;2022-08-27T08:13:46;100809.00;;;22.40
71463;BMP180;59266;52.608;13.260;2022-08-27T08:16:13;100812.00;;;22.50
71463;BMP180;59266;52.608;13.260;2022-08-27T08:18:39;100811.00;;;22.30
71463;BMP180;59266;52.608;13.260;2022-08-27T08:21:09;100807.00;;;22.40
71463;BMP180;59266;52.608;13.260;2022-08-27T08:23:36;100810.00;;;22.60
71463;BMP180;59266;52.608;13.260;2022-08-27T08:26:04;100816.00;;;22.70
71463;BMP180;59266;52.608;13.260;2022-08-27T08:28:31;100820.00;;;22.90
71463;BMP180;59266;52.608;13.260;2022-08-27T08:30:58;100821.00;;;22.60
71463;BMP180;59266;52.608;13.260;2022-08-27T08:33:25;100821.00;;;22.70
71463;BMP180;59266;52.608;13.260;2022-08-27T08:35:53;100819.00;;;22.60
71463;BMP180;59266;52.608;13.260;2022-08-27T08:38:19;100815.00;;;22.50
71463;BMP180;59266;52.608;13.260;2022-08-27T08:40:48;100810.00;;;22.70
71463;BMP180;59266;52.608;13.260;2022-08-27T08:43:26;100807.00;;;22.70
71463;BMP180;59266;52.608;13.260;2022-08-27T08:45:57;100808.00;;;22.90
71463;BMP180;59266;52.608;13.260;2022-08-27T08:48:26;100807.00;;;23.10
71463;BMP180;59266;52.608;13.260;2022-08-27T08:53:40;100802.00;;;23.30
71463;BMP180;59266;52.608;13.260;2022-08-27T08:56:11;100807.00;;;23.20
71463;BMP180;59266;52.608;13.260;2022-08-27T08:58:45;100797.00;;;23.30
71463;BMP180;59266;52.608;13.260;2022-08-27T09:01:15;100797.00;;;23.40
71463;BMP180;59266;52.608;13.260;2022-08-27T09:03:50;100793.00;;;23.40
71463;BMP180;59266;52.608;13.260;2022-08-27T09:06:35;100778.00;;;23.30
71463;BMP180;59266;52.608;13.260;2022-08-27T09:09:26;100779.00;;;23.40
71463;BMP180;59266;52.608;13.260;2022-08-27T09:12:00;100783.00;;;23.30
71463;BMP180;59266;52.608;13.260;2022-08-27T09:14:39;100790.00;;;23.30
71463;BMP180;59266;52.608;13.260;2022-08-27T09:17:11;100795.00;;;23.60
71463;BMP180;59266;52.608;13.260;2022-08-27T09:19:38;100797.00;;;23.40
71463;BMP180;59266;52.608;13.260;2022-08-27T09:22:42;100797.00;;;23.20
71463;BMP180;59266;52.608;13.260;2022-08-27T09:25:20;100795.00;;;23.30
71463;BMP180;59266;52.608;13.260;2022-08-27T09:27:54;100794.00;;;23.50
71463;BMP180;59266;52.608;13.260;2022-08-27T09:30:24;100791.00;;;23.50
71463;BMP180;59266;52.608;13.260;2022-08-27T09:32:58;100793.00;;;23.50
71463;BMP180;59266;52.608;13.260;2022-08-27T09:35:28;100790.00;;;23.30
71463;BMP180;59266;52.608;13.260;2022-08-27T09:38:01;100787.00;;;23.20
71463;BMP180;59266;52.608;13.260;2022-08-27T09:40:35;100784.00;;;23.00
71463;BMP180;59266;52.608;13.260;2022-08-27T09:43:06;100781.00;;;22.90
71463;BMP180;59266;52.608;13.260;2022-08-27T09:45:34;100775.00;;;22.90
71463;BMP180;59266;52.608;13.260;2022-08-27T09:48:06;100770.00;;;23.10
71463;BMP180;59266;52.608;13.260;2022-08-27T09:50:37;100770.00;;;23.00
71463;BMP180;59266;52.608;13.260;2022-08-27T09:53:18;100770.00;;;23.40
71463;BMP180;59266;52.608;13.260;2022-08-27T09:55:48;100771.00;;;23.40
71463;BMP180;59266;52.608;13.260;2022-08-27T09:58:22;100773.00;;;23.80
71463;BMP180;59266;52.608;13.260;2022-08-27T10:01:03;100779.00;;;23.70
71463;BMP180;59266;52.608;13.260;2022-08-27T10:03:30;100789.00;;;23.80
71463;BMP180;59266;52.608;13.260;2022-08-27T10:05:59;100791.00;;;24.00
71463;BMP180;59266;52.608;13.260;2022-08-27T10:08:37;100797.00;;;24.10
71463;BMP180;59266;52.608;13.260;2022-08-27T10:11:28;100803.00;;;24.50
71463;BMP180;59266;52.608;13.260;2022-08-27T10:14:09;100812.00;;;24.70
71463;BMP180;59266;52.608;13.260;2022-08-27T10:16:41;100809.00;;;24.70
71463;BMP180;59266;52.608;13.260;2022-08-27T10:22:32;100813.00;;;25.00
71463;BMP180;59266;52.608;13.260;2022-08-27T10:28:26;100828.00;;;25.30
71463;BMP180;59266;52.608;13.260;2022-08-27T10:31:55;100826.00;;;25.30
71463;BMP180;59266;52.608;13.260;2022-08-27T10:34:23;100823.00;;;26.00
71463;BMP180;59266;52.608;13.260;2022-08-27T10:39:53;100818.00;;;26.20
71463;BMP180;59266;52.608;13.260;2022-08-27T10:42:39;100826.00;;;26.90
71463;BMP180;59266;52.608;13.260;2022-08-27T10:45:17;100823.00;;;26.80
71463;BMP180;59266;52.608;13.260;2022-08-27T10:48:23;100828.00;;;26.50
71463;BMP180;59266;52.608;13.260;2022-08-27T10:50:58;100833.00;;;26.10
71463;BMP180;59266;52.608;13.260;2022-08-27T10:53:36;100824.00;;;25.70
71463;BMP180;59266;52.608;13.260;2022-08-27T10:56:14;100829.00;;;25.90
71463;BMP180;59266;52.608;13.260;2022-08-27T10:58:55;100833.00;;;26.30
71463;BMP180;59266;52.608;13.260;2022-08-27T11:04:37;100835.00;;;25.90
71463;BMP180;59266;52.608;13.260;2022-08-27T11:07:10;100839.00;;;26.20
71463;BMP180;59266;52.608;13.260;2022-08-27T11:12:09;100851.00;;;25.80
71463;BMP180;59266;52.608;13.260;2022-08-27T11:14:52;100844.00;;;25.80
71463;BMP180;59266;52.608;13.260;2022-08-27T11:17:25;100844.00;;;25.70
71463;BMP180;59266;52.608;13.260;2022-08-27T11:20:21;100854.00;;;25.60
71463;BMP180;59266;52.608;13.260;2022-08-27T11:23:11;100852.00;;;25.60
71463;BMP180;59266;52.608;13.260;2022-08-27T11:25:55;100848.00;;;25.30
71463;BMP180;59266;52.608;13.260;2022-08-27T11:28:36;100856.00;;;25.40
71463;BMP180;59266;52.608;13.260;2022-08-27T11:31:20;100850.00;;;25.60
71463;BMP180;59266;52.608;13.260;2022-08-27T11:34:21;100852.00;;;25.40
71463;BMP180;59266;52.608;13.260;2022-08-27T11:37:18;100852.00;;;24.70
71463;BMP180;59266;52.608;13.260;2022-08-27T11:39:53;100850.00;;;24.90
71463;BMP180;59266;52.608;13.260;2022-08-27T11:42:46;100852.00;;;25.00
71463;BMP180;59266;52.608;13.260;2022-08-27T11:45:15;100847.00;;;25.30
71463;BMP180;59266;52.608;13.260;2022-08-27T11:47:53;100850.00;;;25.40
71463;BMP180;59266;52.608;13.260;2022-08-27T11:50:22;100855.00;;;25.40
71463;BMP180;59266;52.608;13.260;2022-08-27T11:52:59;100854.00;;;25.40
71463;BMP180;59266;52.608;13.260;2022-08-27T11:55:32;100849.00;;;25.80
71463;BMP180;59266;52.608;13.260;2022-08-27T11:58:07;100848.00;;;25.70
71463;BMP180;59266;52.608;13.260;2022-08-27T12:00:40;100846.00;;;25.70
71463;BMP180;59266;52.608;13.260;2022-08-27T12:03:29;100845.00;;;26.00
71463;BMP180;59266;52.608;13.260;2022-08-27T12:08:28;100846.00;;;26.50
71463;BMP180;59266;52.608;13.260;2022-08-27T12:13:31;100848.00;;;26.40
71463;BMP180;59266;52.608;13.260;2022-08-27T12:16:33;100851.00;;;26.90
71463;BMP180;59266;52.608;13.260;2022-08-27T12:19:19;100850.00;;;27.00
71463;BMP180;59266;52.608;13.260;2022-08-27T12:24:56;100836.00;;;26.60
71463;BMP180;59266;52.608;13.260;2022-08-27T12:27:26;100828.00;;;27.10
71463;BMP180;59266;52.608;13.260;2022-08-27T12:30:22;100816.00;;;27.20
71463;BMP180;59266;52.608;13.260;2022-08-27T12:32:52;100808.00;;;27.60
71463;BMP180;59266;52.608;13.260;2022-08-27T12:35:30;100805.00;;;28.30
71463;BMP180;59266;52.608;13.260;2022-08-27T12:38:10;100804.00;;;29.20
71463;BMP180;59266;52.608;13.260;2022-08-27T12:40:53;100805.00;;;29.50
71463;BMP180;59266;52.608;13.260;2022-08-27T12:43:25;100813.00;;;29.00
71463;BMP180;59266;52.608;13.260;2022-08-27T12:46:13;100802.00;;;28.30
71463;BMP180;59266;52.608;13.260;2022-08-27T12:48:46;100815.00;;;27.90
71463;BMP180;59266;52.608;13.260;2022-08-27T12:51:24;100818.00;;;27.80
71463;BMP180;59266;52.608;13.260;2022-08-27T12:54:11;100829.00;;;27.30
71463;BMP180;59266;52.608;13.260;2022-08-27T12:57:09;100828.00;;;27.20
71463;BMP180;59266;52.608;13.260;2022-08-27T13:00:06;100820.00;;;26.80
71463;BMP180;59266;52.608;13.260;2022-08-27T13:05:21;100820.00;;;27.80
71463;BMP180;59266;52.608;13.260;2022-08-27T13:07:50;100817.00;;;27.70
71463;BMP180;59266;52.608;13.260;2022-08-27T13:10:28;100821.00;;;27.40
71463;BMP180;59266;52.608;13.260;2022-08-27T13:13:15;100810.00;;;27.30
71463;BMP180;59266;52.608;13.260;2022-08-27T13:15:45;100810.00;;;27.40
71463;BMP180;59266;52.608;13.260;2022-08-27T13:18:12;100813.00;;;27.60
71463;BMP180;59266;52.608;13.260;2022-08-27T13:20:39;100817.00;;;27.10
71463;BMP180;59266;52.608;13.260;2022-08-27T13:23:20;100814.00;;;27.40
71463;BMP180;59266;52.608;13.260;2022-08-27T13:25:56;100780.00;;;28.00
71463;BMP180;59266;52.608;13.260;2022-08-27T13:28:26;100787.00;;;28.60
71463;BMP180;59266;52.608;13.260;2022-08-27T13:30:53;100784.00;;;28.80
71463;BMP180;59266;52.608;13.260;2022-08-27T13:33:26;100786.00;;;29.00
71463;BMP180;59266;52.608;13.260;2022-08-27T13:35:53;100779.00;;;29.70
71463;BMP180;59266;52.608;13.260;2022-08-27T13:38:24;100793.00;;;29.90
71463;BMP180;59266;52.608;13.260;2022-08-27T13:43:36;100777.00;;;30.00
71463;BMP180;59266;52.608;13.260;2022-08-27T13:46:09;100782.00;;;30.80
71463;BMP180;59266;52.608;13.260;2022-08-27T13:48:41;100811.00;;;31.30
71463;BMP180;59266;52.608;13.260;2022-08-27T13:51:10;100811.00;;;29.60
71463;BMP180;59266;52.608;13.260;2022-08-27T13:53:42;100817.00;;;29.40
71463;BMP180;59266;52.608;13.260;2022-08-27T13:56:31;100831.00;;;29.40
71463;BMP180;59266;52.608;13.260;2022-08-27T13:59:09;100816.00;;;28.80
71463;BMP180;59266;52.608;13.260;2022-08-27T14:01:42;100823.00;;;28.70
71463;BMP180;59266;52.608;13.260;2022-08-27T14:04:22;100822.00;;;28.80
71463;BMP180;59266;52.608;13.260;2022-08-27T14:06:49;100822.00;;;27.80
71463;BMP180;59266;52.608;13.260;2022-08-27T14:09:27;100822.00;;;27.10
71463;BMP180;59266;52.608;13.260;2022-08-27T14:12:04;100826.00;;;27.40
71463;BMP180;59266;52.608;13.260;2022-08-27T14:14:38;100824.00;;;27.10
71463;BMP180;59266;52.608;13.260;2022-08-27T14:17:06;100823.00;;;27.10
71463;BMP180;59266;52.608;13.260;2022-08-27T14:19:44;100829.00;;;27.10
71463;BMP180;59266;52.608;13.260;2022-08-27T14:22:11;100823.00;;;27.10
71463;BMP180;59266;52.608;13.260;2022-08-27T14:24:37;100828.00;;;27.40
71463;BMP180;59266;52.608;13.260;2022-08-27T14:27:08;100832.00;;;27.10
71463;BMP180;59266;52.608;13.260;2022-08-27T14:29:35;100821.00;;;27.60
71463;BMP180;59266;52.608;13.260;2022-08-27T14:32:02;100829.00;;;27.50
71463;BMP180;59266;52.608;13.260;2022-08-27T14:34:28;100826.00;;;27.30
71463;BMP180;59266;52.608;13.260;2022-08-27T14:36:55;100824.00;;;27.60
71463;BMP180;59266;52.608;13.260;2022-08-27T14:39:22;100802.00;;;28.00
71463;BMP180;59266;52.608;13.260;2022-08-27T14:41:52;100819.00;;;28.10
71463;BMP180;59266;52.608;13.260;2022-08-27T14:44:20;100823.00;;;27.90